Terminal Aerodrome Forecast
Issued by NWS

Home | Current Version | Previous Version | Text Only | Print | Product List | Glossary On
Versions: 1 2 3 4 5 6 7 8 9 10 11
154
FTUS43 KAPX 240524
TAFPLN
TAF
KPLN 240524Z 2406/2506 VRB03KT P6SM FEW250 WS010/24030KT
     FM241300 22008KT P6SM FEW250
     FM241700 23010G17KT P6SM VCSH SCT060 BKN090
     FM242200 25008KT P6SM SCT050
     FM250300 VRB03KT P6SM VCSH OVC050=

USA.gov is the U.S. government's official web portal to all federal, state and local government web resources and services.